Time;durP1;ratioP1;P1;durP2;ratioP2;P2;SDS_P1;SDS_P2;PMS_P1;PMS_P2;Temp;Humidity;BMP_temperature;BMP_pressure;BME280_temperature;BME280_humidity;BME280_pressure;Samples;Min_cycle;Max_cycle;Signal;HPM_P1;HPM_P2
2024/04/18 00:01:35;;;;;;;5.10;1.10;;;11.60;84.40;;;;;;5553315;25;20009;-74
2024/04/18 00:04:00;;;;;;;3.38;1.15;;;11.60;84.10;;;;;;5561324;25;20012;-74
2024/04/18 00:06:26;;;;;;;4.10;1.15;;;11.50;83.80;;;;;;5557114;25;20432;-74
2024/04/18 00:08:52;;;;;;;2.13;0.80;;;11.60;83.50;;;;;;5552966;25;19999;-74
2024/04/18 00:11:23;;;;;;;2.85;0.98;;;11.60;83.40;;;;;;5553871;25;19997;-74
2024/04/18 00:13:49;;;;;;;5.10;0.82;;;11.60;83.10;;;;;;5552969;25;20063;-74
2024/04/18 00:16:34;;;;;;;4.82;0.90;;;11.60;83.10;;;;;;5549360;25;20000;-74
2024/04/18 00:19:14;;;;;;;3.65;0.90;;;11.60;82.90;;;;;;5529428;25;20013;-74
2024/04/18 00:21:55;;;;;;;2.38;0.80;;;11.60;82.70;;;;;;5551526;25;19996;-74
2024/04/18 00:24:27;;;;;;;9.85;1.10;;;11.60;82.50;;;;;;5540366;25;20016;-74
2024/04/18 00:26:53;;;;;;;3.90;1.13;;;11.60;82.20;;;;;;5556090;25;20336;-74
2024/04/18 00:29:18;;;;;;;4.75;1.42;;;11.60;82.10;;;;;;5547252;25;19993;-74
2024/04/18 00:31:44;;;;;;;5.25;1.42;;;11.60;81.90;;;;;;5562093;25;20474;-74
2024/04/18 00:34:10;;;;;;;2.85;0.63;;;11.60;81.90;;;;;;5559334;25;20028;-74
2024/04/18 00:36:44;;;;;;;2.80;0.90;;;11.60;82.00;;;;;;5561446;25;19996;-74
2024/04/18 00:39:30;;;;;;;5.00;1.17;;;11.60;81.90;;;;;;5499485;25;20405;-74
2024/04/18 00:41:59;;;;;;;6.90;1.10;;;11.60;81.70;;;;;;5557905;25;20005;-74
2024/04/18 00:44:28;;;;;;;4.95;1.50;;;11.60;81.50;;;;;;5550104;25;20005;-74
2024/04/18 00:47:13;;;;;;;6.28;1.08;;;11.60;81.30;;;;;;5539398;25;20011;-74
2024/04/18 00:49:40;;;;;;;2.45;1.08;;;11.60;81.20;;;;;;5562593;25;20027;-74
2024/04/18 00:52:11;;;;;;;0.88;0.80;;;11.70;81.20;;;;;;5552302;25;20406;-74
2024/04/18 00:54:52;;;;;;;4.90;1.02;;;11.70;81.10;;;;;;5546901;25;20867;-74
2024/04/18 00:57:33;;;;;;;3.83;1.02;;;11.60;81.10;;;;;;5548106;25;20025;-74
2024/04/18 00:59:59;;;;;;;5.80;1.13;;;11.60;81.00;;;;;;5555960;25;20069;-74
2024/04/18 01:02:27;;;;;;;5.57;1.40;;;11.60;80.80;;;;;;5549786;25;20000;-74
2024/04/18 01:05:12;;;;;;;3.70;1.20;;;11.60;80.80;;;;;;5547371;25;20347;-74
2024/04/18 01:07:41;;;;;;;5.57;0.77;;;11.60;80.90;;;;;;5555183;25;19992;-74
2024/04/18 01:10:19;;;;;;;2.80;0.90;;;11.50;80.80;;;;;;5549183;25;19996;-74
2024/04/18 01:12:58;;;;;;;2.70;1.10;;;11.50;80.80;;;;;;5555724;25;19996;-74
2024/04/18 01:15:43;;;;;;;1.45;0.70;;;11.50;80.60;;;;;;5558419;25;20336;-74
2024/04/18 01:18:09;;;;;;;2.58;1.05;;;11.60;80.60;;;;;;5555946;25;20045;-74
2024/04/18 01:20:36;;;;;;;3.95;1.05;;;11.50;80.50;;;;;;5546699;25;20569;-74
2024/04/18 01:23:02;;;;;;;7.25;1.08;;;11.50;80.50;;;;;;5566928;25;19999;-74
2024/04/18 01:25:42;;;;;;;2.45;1.00;;;11.50;80.50;;;;;;5554535;25;20444;-74
2024/04/18 01:28:08;;;;;;;1.58;0.93;;;11.50;80.50;;;;;;5554471;25;20008;-73
2024/04/18 01:30:54;;;;;;;6.43;1.52;;;11.40;80.40;;;;;;5545658;25;20462;-74
2024/04/18 01:33:20;;;;;;;2.38;0.77;;;11.40;80.30;;;;;;5558439;25;19997;-74
2024/04/18 01:35:45;;;;;;;4.38;1.05;;;11.40;80.30;;;;;;5545310;25;19997;-74
2024/04/18 01:38:20;;;;;;;3.95;1.08;;;11.40;80.30;;;;;;5544909;25;19997;-74
2024/04/18 01:40:46;;;;;;;3.30;1.13;;;11.40;80.20;;;;;;5550801;25;20470;-74
2024/04/18 01:43:30;;;;;;;5.15;1.00;;;11.40;80.20;;;;;;5549240;25;20011;-73
2024/04/18 01:46:14;;;;;;;7.55;1.17;;;11.40;80.10;;;;;;5557021;25;20064;-72
2024/04/18 01:48:57;;;;;;;8.45;1.58;;;11.40;80.00;;;;;;5536394;25;20000;-73
2024/04/18 01:51:43;;;;;;;1.55;0.90;;;11.40;80.00;;;;;;5533609;25;20005;-73
2024/04/18 01:54:28;;;;;;;6.63;1.00;;;11.40;80.00;;;;;;5541668;25;20007;-73
2024/04/18 01:56:54;;;;;;;8.02;1.40;;;11.30;80.00;;;;;;5556098;25;19996;-73
2024/04/18 01:59:23;;;;;;;2.25;1.35;;;11.30;80.10;;;;;;5534781;25;20425;-73
2024/04/18 02:01:49;;;;;;;3.33;0.90;;;11.20;80.10;;;;;;5540867;25;19992;-74
2024/04/18 02:04:17;;;;;;;1.70;0.93;;;11.20;80.20;;;;;;5537112;25;20400;-74
2024/04/18 02:06:43;;;;;;;3.92;0.85;;;11.20;80.20;;;;;;5560210;25;20008;-73
2024/04/18 02:09:21;;;;;;;2.45;1.00;;;11.10;80.20;;;;;;5554098;25;20000;-74
2024/04/18 02:11:50;;;;;;;1.25;0.65;;;11.10;80.30;;;;;;5550890;25;20005;-74
2024/04/18 02:14:36;;;;;;;4.68;0.88;;;11.10;80.20;;;;;;5563927;25;20000;-74
2024/04/18 02:17:02;;;;;;;6.10;1.08;;;11.10;80.20;;;;;;5548434;25;20001;-74
2024/04/18 02:19:28;;;;;;;2.58;1.13;;;11.10;80.10;;;;;;5550890;25;20001;-74
2024/04/18 02:21:57;;;;;;;1.95;0.80;;;11.10;80.10;;;;;;5557941;25;20012;-74
2024/04/18 02:24:37;;;;;;;2.58;0.98;;;11.10;80.10;;;;;;5552819;25;20008;-74
2024/04/18 02:27:03;;;;;;;2.75;1.30;;;11.00;80.00;;;;;;5558002;25;20016;-74
2024/04/18 02:29:29;;;;;;;5.18;1.10;;;11.10;79.90;;;;;;5558173;25;19997;-74
2024/04/18 02:31:58;;;;;;;4.38;1.00;;;11.10;80.00;;;;;;5561732;25;20071;-74
2024/04/18 02:34:30;;;;;;;3.45;0.98;;;11.10;79.90;;;;;;5551721;25;20004;-74
2024/04/18 02:36:55;;;;;;;2.05;0.80;;;11.10;79.80;;;;;;5555108;25;20071;-74
2024/04/18 02:39:21;;;;;;;1.48;0.88;;;11.10;79.70;;;;;;5554391;25;20001;-74
2024/04/18 02:41:47;;;;;;;2.78;0.90;;;11.10;80.30;;;;;;5552108;25;20005;-74
2024/04/18 02:44:24;;;;;;;4.68;1.63;;;11.00;79.60;;;;;;5546116;25;20009;-74
2024/04/18 02:46:51;;;;;;;1.75;0.90;;;11.10;79.70;;;;;;5541755;25;19997;-74
2024/04/18 02:49:17;;;;;;;1.60;0.57;;;11.00;79.60;;;;;;5538113;25;19997;-74
2024/04/18 02:51:55;;;;;;;3.85;0.98;;;11.10;79.80;;;;;;5542776;25;19997;-74
2024/04/18 02:54:41;;;;;;;7.70;1.20;;;11.00;79.80;;;;;;5543034;25;20001;-74
2024/04/18 02:57:07;;;;;;;4.65;1.30;;;11.00;80.40;;;;;;5545162;25;20261;-74
2024/04/18 02:59:33;;;;;;;1.48;1.00;;;11.00;80.70;;;;;;5548901;25;19988;-74
2024/04/18 03:02:18;;;;;;;3.40;0.80;;;10.90;80.70;;;;;;5543914;25;20440;-74
2024/04/18 03:04:44;;;;;;;4.60;0.88;;;10.90;81.00;;;;;;5536213;25;20041;-74
2024/04/18 03:07:09;;;;;;;0.82;0.73;;;10.80;81.20;;;;;;5555628;25;20443;-74
2024/04/18 03:09:45;;;;;;;6.57;1.23;;;10.80;81.20;;;;;;5544176;25;19996;-74
2024/04/18 03:12:25;;;;;;;1.52;0.68;;;10.80;81.30;;;;;;5544271;25;20335;-74
2024/04/18 03:14:51;;;;;;;2.45;0.73;;;10.80;81.50;;;;;;5551433;25;20009;-74
2024/04/18 03:17:37;;;;;;;1.73;0.93;;;10.80;81.50;;;;;;5559493;25;20004;-74
2024/04/18 03:20:02;;;;;;;2.25;0.90;;;10.80;81.50;;;;;;5549692;25;19997;-74
2024/04/18 03:22:30;;;;;;;1.55;0.60;;;10.70;81.50;;;;;;5536543;25;20428;-74
2024/04/18 03:24:59;;;;;;;0.98;0.50;;;10.80;81.50;;;;;;5544976;25;20324;-74
2024/04/18 03:27:31;;;;;;;2.50;1.20;;;10.70;81.70;;;;;;5555985;25;20332;-74
2024/04/18 03:29:56;;;;;;;5.63;1.20;;;10.70;81.70;;;;;;5551716;25;20001;-74
2024/04/18 03:32:32;;;;;;;1.08;0.80;;;10.70;81.90;;;;;;5538347;25;20012;-74
2024/04/18 03:34:58;;;;;;;1.67;1.38;;;10.70;81.90;;;;;;5547757;25;20013;-74
2024/04/18 03:37:24;;;;;;;1.13;0.77;;;10.70;81.80;;;;;;5543964;25;20596;-74
2024/04/18 03:39:49;;;;;;;5.80;1.20;;;10.60;81.70;;;;;;5546115;25;20449;-74
2024/04/18 03:42:15;;;;;;;3.17;1.10;;;10.70;81.70;;;;;;5536732;25;20073;-74
2024/04/18 03:44:57;;;;;;;8.85;1.08;;;10.70;81.60;;;;;;5544655;25;20002;-74
2024/04/18 03:47:22;;;;;;;4.68;1.17;;;10.60;81.40;;;;;;5536305;25;20002;-74
2024/04/18 03:50:07;;;;;;;3.80;1.00;;;10.70;81.40;;;;;;5543574;25;19996;-74
2024/04/18 03:52:39;;;;;;;2.50;1.00;;;10.60;81.30;;;;;;5546556;25;20005;-74
2024/04/18 03:55:40;;;;;;;3.15;1.02;;;10.60;81.30;;;;;;5517198;25;19997;-74
2024/04/18 03:58:06;;;;;;;6.38;0.88;;;10.60;81.40;;;;;;5535249;25;20025;-73
2024/04/18 04:00:48;;;;;;;3.03;1.17;;;10.60;81.40;;;;;;5555791;25;20554;-74
2024/04/18 04:03:13;;;;;;;2.47;0.98;;;10.60;81.60;;;;;;5548310;25;20001;-74
2024/04/18 04:05:39;;;;;;;7.50;1.10;;;10.60;81.60;;;;;;5543185;25;20000;-74
2024/04/18 04:08:09;;;;;;;2.40;0.85;;;10.70;81.80;;;;;;5538504;25;20008;-74
2024/04/18 04:10:38;;;;;;;1.23;1.02;;;10.70;81.80;;;;;;5534336;25;20750;-74
2024/04/18 04:13:03;;;;;;;0.93;0.90;;;10.70;81.90;;;;;;5535593;25;20013;-74
2024/04/18 04:15:51;;;;;;;9.38;1.50;;;10.60;81.80;;;;;;5534387;25;19997;-74
2024/04/18 04:18:35;;;;;;;2.50;1.00;;;10.70;81.90;;;;;;5549341;25;20007;-74
2024/04/18 04:21:19;;;;;;;1.30;0.90;;;10.70;81.80;;;;;;5555639;25;19997;-74
2024/04/18 04:23:44;;;;;;;3.30;1.20;;;10.70;81.80;;;;;;5551245;25;20564;-74
2024/04/18 04:26:10;;;;;;;5.65;1.25;;;10.70;81.70;;;;;;5544847;25;20013;-74
2024/04/18 04:28:36;;;;;;;4.13;1.00;;;10.70;81.60;;;;;;5557767;25;20008;-74
2024/04/18 04:31:01;;;;;;;4.75;1.02;;;10.70;81.60;;;;;;5552755;25;20000;-74
2024/04/18 04:33:28;;;;;;;4.07;0.90;;;10.70;81.60;;;;;;5547789;25;20004;-74
2024/04/18 04:35:55;;;;;;;2.35;1.08;;;10.70;81.50;;;;;;5557378;25;20008;-74
2024/04/18 04:38:20;;;;;;;3.10;1.30;;;10.70;81.60;;;;;;5557128;25;19997;-74
2024/04/18 04:40:46;;;;;;;4.80;1.10;;;10.80;81.70;;;;;;5545930;25;19997;-74
2024/04/18 04:43:12;;;;;;;5.68;1.50;;;10.80;81.70;;;;;;5544800;25;20005;-74
2024/04/18 04:45:37;;;;;;;5.82;1.63;;;10.80;81.70;;;;;;5556575;25;20332;-74
2024/04/18 04:48:07;;;;;;;4.18;1.27;;;10.70;81.90;;;;;;5542626;25;20013;-73
2024/04/18 04:50:32;;;;;;;5.65;1.20;;;10.70;82.20;;;;;;5547802;25;19996;-73
2024/04/18 04:53:11;;;;;;;2.88;1.00;;;10.60;82.30;;;;;;5549962;25;20023;-74
2024/04/18 04:55:56;;;;;;;2.00;1.00;;;10.70;82.70;;;;;;5549059;25;20005;-75
2024/04/18 04:58:22;;;;;;;3.55;1.25;;;10.50;82.80;;;;;;5549758;25;20011;-75
2024/04/18 05:00:49;;;;;;;5.35;1.35;;;10.60;83.00;;;;;;5534771;25;20326;-75
2024/04/18 05:03:34;;;;;;;9.90;2.10;;;10.60;83.00;;;;;;5505392;25;20413;-75
2024/04/18 05:06:21;;;;;;;2.13;1.25;;;10.50;83.20;;;;;;5541537;25;20011;-75
2024/04/18 05:09:07;;;;;;;4.97;1.52;;;10.60;83.40;;;;;;5546148;25;20024;-75
2024/04/18 05:11:32;;;;;;;4.85;1.17;;;10.50;83.40;;;;;;5546854;25;20001;-76
2024/04/18 05:13:58;;;;;;;4.63;1.42;;;10.60;83.80;;;;;;5536187;25;19993;-75
2024/04/18 05:16:43;;;;;;;3.55;1.05;;;10.60;84.00;;;;;;5550244;25;20017;-75
2024/04/18 05:19:09;;;;;;;4.90;1.10;;;10.60;84.20;;;;;;5550200;25;20004;-75
2024/04/18 05:21:35;;;;;;;2.78;1.20;;;10.60;84.40;;;;;;5547065;25;20060;-75
2024/04/18 05:24:19;;;;;;;2.03;0.90;;;10.70;84.60;;;;;;5553231;25;20017;-74
2024/04/18 05:26:45;;;;;;;5.32;1.33;;;10.60;84.70;;;;;;5535408;25;20515;-75
2024/04/18 05:31:55;;;;;;;3.10;1.08;;;10.80;84.70;;;;;;5552439;25;20008;-75
2024/04/18 05:34:21;;;;;;;4.55;1.52;;;10.80;84.90;;;;;;5540625;25;19997;-74
2024/04/18 05:36:47;;;;;;;3.58;1.20;;;10.80;85.00;;;;;;5545685;25;20020;-75
2024/04/18 05:39:12;;;;;;;4.70;0.95;;;10.90;85.20;;;;;;5544894;25;20016;-75
2024/04/18 05:41:38;;;;;;;2.83;1.15;;;10.80;85.50;;;;;;5543167;25;20001;-76
2024/04/18 05:44:24;;;;;;;3.58;1.13;;;10.90;85.90;;;;;;5550386;25;20009;-77
2024/04/18 05:46:50;;;;;;;2.03;1.02;;;10.90;86.00;;;;;;5553806;25;20001;-76
2024/04/18 05:49:16;;;;;;;8.88;1.52;;;10.90;86.20;;;;;;5543599;25;20080;-76
2024/04/18 05:51:42;;;;;;;7.72;1.30;;;11.00;86.20;;;;;;5513903;25;19993;-76
2024/04/18 05:54:26;;;;;;;2.67;1.10;;;11.00;86.30;;;;;;5519365;25;20077;-76
2024/04/18 05:57:06;;;;;;;7.22;1.80;;;11.00;86.40;;;;;;5524399;25;20000;-76
2024/04/18 05:59:54;;;;;;;5.13;1.13;;;11.10;86.70;;;;;;5530034;25;20830;-76
2024/04/18 06:02:20;;;;;;;9.07;1.17;;;11.10;86.80;;;;;;5554000;25;20001;-76
2024/04/18 06:04:46;;;;;;;7.75;1.60;;;11.10;86.90;;;;;;5529634;25;20013;-76
2024/04/18 06:07:31;;;;;;;7.38;1.35;;;11.20;86.90;;;;;;5525587;25;20077;-76
2024/04/18 06:09:57;;;;;;;3.30;1.23;;;11.20;86.80;;;;;;5520555;25;20101;-76
2024/04/18 06:12:23;;;;;;;63.38;3.53;;;11.30;86.90;;;;;;5529879;25;20005;-76
2024/04/18 06:14:48;;;;;;;3.35;0.93;;;11.30;86.90;;;;;;5528462;25;20049;-76
2024/04/18 06:17:15;;;;;;;5.05;1.30;;;11.30;86.90;;;;;;5542676;25;20005;-76
2024/04/18 06:19:50;;;;;;;4.40;1.13;;;11.20;87.00;;;;;;5516236;25;20370;-76
2024/04/18 06:22:31;;;;;;;185.98;19.27;;;11.20;87.10;;;;;;5520621;25;20005;-76
2024/04/18 06:25:18;;;;;;;217.55;12.15;;;11.20;87.60;;;;;;5537242;25;20034;-77
2024/04/18 06:27:45;;;;;;;56.33;4.95;;;11.00;88.30;;;;;;5520622;25;20016;-76
2024/04/18 06:30:11;;;;;;;167.48;6.35;;;10.90;89.00;;;;;;5542499;25;20012;-76
2024/04/18 06:32:37;;;;;;;59.22;3.10;;;10.90;89.00;;;;;;5519018;25;20477;-76
2024/04/18 06:35:03;;;;;;;65.93;3.33;;;10.80;89.20;;;;;;5521816;25;20013;-76
2024/04/18 06:37:29;;;;;;;63.65;2.92;;;10.80;89.30;;;;;;5539741;25;20035;-76
2024/04/18 06:39:55;;;;;;;4.00;1.20;;;10.90;89.40;;;;;;5523015;25;19992;-76
2024/04/18 06:42:20;;;;;;;6.80;1.25;;;11.00;89.30;;;;;;5551725;25;20008;-76
2024/04/18 06:44:46;;;;;;;5.90;1.75;;;11.00;89.20;;;;;;5546874;25;20012;-75
2024/04/18 06:47:12;;;;;;;208.13;10.95;;;11.20;89.10;;;;;;5543201;25;20076;-76
2024/04/18 06:49:37;;;;;;;2.88;0.90;;;11.20;88.70;;;;;;5540050;25;20004;-76
2024/04/18 06:52:03;;;;;;;7.40;1.02;;;11.20;88.80;;;;;;5533850;25;20994;-76
2024/04/18 06:54:29;;;;;;;3.10;1.23;;;11.20;88.90;;;;;;5541861;25;19996;-76
2024/04/18 06:56:54;;;;;;;3.92;1.20;;;11.00;89.80;;;;;;5544013;25;20005;-76
2024/04/18 06:59:20;;;;;;;0.70;0.70;;;11.00;90.00;;;;;;5541716;25;20008;-76
2024/04/18 07:01:46;;;;;;;7.95;1.20;;;11.10;90.00;;;;;;5522120;25;20029;-76
2024/04/18 07:04:12;;;;;;;3.33;1.05;;;11.20;90.00;;;;;;5521824;25;20455;-76
2024/04/18 07:06:59;;;;;;;2.10;0.95;;;11.30;89.90;;;;;;5531875;25;20025;-76
2024/04/18 07:09:36;;;;;;;9.48;1.45;;;11.40;89.50;;;;;;5539676;25;19993;-76
2024/04/18 07:12:16;;;;;;;3.25;0.70;;;11.40;89.40;;;;;;5533752;25;20007;-76
2024/04/18 07:14:42;;;;;;;7.43;1.17;;;11.50;88.90;;;;;;5521550;25;19994;-76
2024/04/18 07:17:10;;;;;;;2.17;0.80;;;11.60;88.80;;;;;;5543126;25;20001;-77
2024/04/18 07:19:36;;;;;;;5.35;1.63;;;11.60;88.80;;;;;;5523423;25;20005;-76
2024/04/18 07:22:01;;;;;;;5.18;1.08;;;11.60;88.60;;;;;;5522912;25;20060;-76
2024/04/18 07:24:49;;;;;;;58.30;1.98;;;11.70;88.50;;;;;;5523501;25;20001;-76
2024/04/18 07:27:15;;;;;;;5.38;1.10;;;11.70;88.60;;;;;;5522888;25;20016;-76
2024/04/18 07:29:41;;;;;;;2.35;0.82;;;11.80;88.70;;;;;;5540621;25;20017;-77
2024/04/18 07:32:07;;;;;;;1.65;0.90;;;11.80;88.10;;;;;;5522201;25;20001;-76
2024/04/18 07:34:33;;;;;;;1.70;0.85;;;11.80;88.00;;;;;;5521398;25;20002;-76
2024/04/18 07:36:59;;;;;;;8.05;1.05;;;11.70;87.90;;;;;;5534718;25;20079;-76
2024/04/18 07:39:25;;;;;;;63.85;2.95;;;11.80;87.90;;;;;;5531087;25;20457;-76
2024/04/18 07:41:51;;;;;;;58.88;2.30;;;11.80;87.80;;;;;;5519143;25;20708;-76
2024/04/18 07:44:16;;;;;;;58.75;2.30;;;11.80;88.60;;;;;;5518499;25;20031;-76
2024/04/18 07:46:44;;;;;;;4.65;1.20;;;11.80;88.50;;;;;;5517735;25;20008;-76
2024/04/18 07:49:10;;;;;;;2.20;0.93;;;11.80;88.40;;;;;;5517517;25;20005;-76
2024/04/18 07:51:37;;;;;;;3.88;1.17;;;11.80;88.30;;;;;;5516696;25;19993;-76
2024/04/18 07:54:02;;;;;;;4.53;1.25;;;11.80;89.00;;;;;;5519393;25;20013;-76
2024/04/18 07:56:28;;;;;;;4.60;1.00;;;11.80;89.30;;;;;;5522674;25;19997;-76
2024/04/18 07:58:54;;;;;;;1.50;0.90;;;11.80;89.50;;;;;;5542180;25;20008;-76
2024/04/18 08:01:20;;;;;;;3.50;1.02;;;11.80;89.20;;;;;;5520592;25;20020;-76
2024/04/18 08:03:45;;;;;;;6.00;1.05;;;11.80;89.30;;;;;;5541676;25;19997;-76
2024/04/18 08:06:11;;;;;;;5.45;1.65;;;11.90;90.00;;;;;;5542950;25;20369;-77
2024/04/18 08:08:36;;;;;;;1.52;1.00;;;11.90;90.00;;;;;;5543790;25;20001;-76
2024/04/18 08:11:03;;;;;;;5.88;1.13;;;11.90;89.30;;;;;;5519884;25;20005;-76
2024/04/18 08:13:29;;;;;;;4.68;0.93;;;12.00;90.00;;;;;;5518951;25;20563;-76
2024/04/18 08:15:55;;;;;;;403.88;18.15;;;12.00;90.10;;;;;;5532051;25;19997;-76
2024/04/18 08:18:21;;;;;;;257.30;6.90;;;12.00;90.10;;;;;;5530105;25;19998;-76
2024/04/18 08:20:47;;;;;;;5.72;0.82;;;12.00;89.80;;;;;;5522536;25;19997;-76
2024/04/18 08:23:19;;;;;;;3.35;0.90;;;12.10;89.00;;;;;;5520884;25;20500;-76
2024/04/18 08:25:45;;;;;;;4.72;1.08;;;12.20;90.00;;;;;;5539095;25;20004;-76
2024/04/18 08:28:11;;;;;;;2.75;1.02;;;12.20;89.70;;;;;;5530559;25;20012;-76
2024/04/18 08:30:37;;;;;;;58.67;2.95;;;12.20;89.00;;;;;;5521401;25;20001;-76
2024/04/18 08:33:02;;;;;;;109.28;7.28;;;12.20;88.90;;;;;;5543005;25;20360;-76
2024/04/18 08:35:28;;;;;;;4.63;1.15;;;12.30;88.70;;;;;;5532927;25;20012;-76
2024/04/18 08:37:53;;;;;;;2.15;0.85;;;12.40;88.10;;;;;;5535250;25;20029;-77
2024/04/18 08:40:19;;;;;;;61.70;3.00;;;12.40;87.80;;;;;;5519435;25;20002;-77
2024/04/18 08:42:46;;;;;;;2.72;0.80;;;12.50;88.00;;;;;;5522803;25;20310;-76
2024/04/18 08:45:12;;;;;;;582.60;24.08;;;12.50;88.40;;;;;;5520083;25;20016;-76
2024/04/18 08:47:40;;;;;;;6.07;1.75;;;12.60;88.30;;;;;;5520398;25;20032;-76
2024/04/18 08:50:09;;;;;;;87.65;2.47;;;12.60;88.20;;;;;;5523748;25;20326;-76
2024/04/18 08:52:36;;;;;;;3.33;1.33;;;12.60;87.80;;;;;;5517481;25;20029;-76
2024/04/18 08:55:01;;;;;;;66.65;3.58;;;12.60;87.40;;;;;;5521765;25;20065;-77
2024/04/18 08:57:29;;;;;;;1.75;0.68;;;12.60;88.40;;;;;;5519536;25;20001;-76
2024/04/18 09:00:01;;;;;;;6.75;0.93;;;12.60;89.20;;;;;;5520644;25;20001;-77
2024/04/18 09:02:26;;;;;;;6.00;1.10;;;12.50;88.20;;;;;;5543680;25;19997;-77
2024/04/18 09:04:52;;;;;;;3.42;0.95;;;12.60;88.50;;;;;;5554609;25;20824;-76
2024/04/18 09:07:19;;;;;;;57.70;2.40;;;12.60;87.10;;;;;;5537178;25;20005;-76
2024/04/18 09:09:46;;;;;;;6.80;2.42;;;12.70;87.40;;;;;;5530121;25;20001;-76
2024/04/18 09:12:13;;;;;;;6.07;1.45;;;12.80;87.70;;;;;;5530935;25;19997;-76
2024/04/18 09:14:38;;;;;;;2.47;0.95;;;12.80;86.90;;;;;;5530485;25;19997;-76
2024/04/18 09:17:14;;;;;;;3.45;1.10;;;12.80;87.00;;;;;;5538771;25;20024;-76
2024/04/18 09:19:40;;;;;;;284.40;10.27;;;12.90;87.20;;;;;;5520850;25;20353;-76
2024/04/18 09:22:05;;;;;;;98.10;2.63;;;12.90;86.70;;;;;;5519242;25;20016;-76
2024/04/18 09:24:32;;;;;;;310.25;12.57;;;12.90;86.80;;;;;;5520907;25;20008;-76
2024/04/18 09:26:58;;;;;;;7.68;1.40;;;13.00;86.70;;;;;;5523048;25;19998;-76
2024/04/18 09:29:24;;;;;;;4.45;1.27;;;13.00;86.60;;;;;;5519134;25;20041;-77
2024/04/18 09:31:51;;;;;;;112.47;3.55;;;13.00;85.90;;;;;;5540143;25;19998;-76
2024/04/18 09:34:18;;;;;;;4.60;1.23;;;13.10;85.60;;;;;;5520356;25;20429;-76
2024/04/18 09:36:45;;;;;;;5.35;1.50;;;13.20;85.80;;;;;;5529908;25;20064;-77
2024/04/18 09:39:17;;;;;;;6.43;1.35;;;13.20;85.50;;;;;;5532730;25;20009;-76
2024/04/18 09:41:48;;;;;;;5.63;1.30;;;13.30;86.20;;;;;;5535067;25;20016;-78
2024/04/18 09:44:20;;;;;;;5.45;1.10;;;13.30;85.80;;;;;;5530522;25;20728;-77
2024/04/18 09:46:50;;;;;;;59.40;3.10;;;13.40;85.50;;;;;;5520978;25;20008;-77
2024/04/18 09:49:17;;;;;;;4.45;1.20;;;13.40;86.40;;;;;;5519539;25;20077;-78
2024/04/18 09:51:44;;;;;;;5.00;1.40;;;13.40;86.40;;;;;;5521016;25;20001;-77
2024/04/18 09:54:11;;;;;;;8.00;1.38;;;13.50;85.90;;;;;;5520375;25;20002;-76
2024/04/18 09:56:37;;;;;;;7.32;1.30;;;13.50;85.80;;;;;;5520550;25;20091;-77
2024/04/18 09:59:03;;;;;;;3.97;1.27;;;13.50;85.90;;;;;;5527069;25;19997;-77
2024/04/18 10:01:29;;;;;;;17.10;4.28;;;13.60;86.60;;;;;;5551950;25;20016;-77
2024/04/18 10:03:55;;;;;;;7.35;1.38;;;13.60;87.10;;;;;;5522812;25;20001;-77
2024/04/18 10:06:26;;;;;;;9.30;2.08;;;13.50;86.40;;;;;;5547777;25;19996;-77
2024/04/18 10:08:54;;;;;;;4.43;1.40;;;13.60;86.70;;;;;;5543367;25;20538;-77
2024/04/18 10:11:23;;;;;;;8.60;1.33;;;13.60;87.10;;;;;;5554765;25;20013;-77
2024/04/18 10:13:49;;;;;;;5.10;1.17;;;13.60;87.20;;;;;;5516131;25;20080;-76
2024/04/18 10:16:15;;;;;;;169.32;6.60;;;13.70;88.00;;;;;;5536633;25;20012;-76
2024/04/18 10:18:42;;;;;;;11.20;1.70;;;13.70;87.80;;;;;;5522466;25;21450;-78
2024/04/18 10:21:12;;;;;;;10.13;1.30;;;13.70;87.10;;;;;;5519052;25;20243;-78
2024/04/18 10:23:52;;;;;;;4.53;1.40;;;13.70;86.90;;;;;;5526471;25;20011;-77
2024/04/18 10:26:19;;;;;;;117.10;4.65;;;13.80;87.00;;;;;;5539964;25;19997;-77
2024/04/18 10:28:46;;;;;;;8.98;1.20;;;13.80;87.60;;;;;;5545916;25;19998;-77
2024/04/18 10:31:12;;;;;;;172.25;5.07;;;14.00;87.30;;;;;;5519354;25;20011;-77
2024/04/18 10:33:42;;;;;;;8.73;1.63;;;14.00;87.30;;;;;;5542418;25;19997;-77
2024/04/18 10:36:15;;;;;;;3.00;0.98;;;14.00;87.10;;;;;;5539954;25;20032;-77
2024/04/18 10:38:46;;;;;;;4.95;1.00;;;14.00;86.40;;;;;;5520096;25;20073;-77
2024/04/18 10:41:17;;;;;;;4.60;1.40;;;14.00;86.80;;;;;;5540754;25;20009;-77
2024/04/18 10:43:43;;;;;;;206.05;5.65;;;14.10;86.40;;;;;;5550112;25;20096;-77
2024/04/18 10:46:10;;;;;;;99.80;4.45;;;14.10;86.60;;;;;;5557662;25;20105;-77
2024/04/18 10:48:36;;;;;;;28.92;1.75;;;14.10;86.80;;;;;;5540127;25;20078;-77
2024/04/18 10:51:03;;;;;;;3.90;1.08;;;14.20;86.00;;;;;;5522077;25;21795;-77
2024/04/18 10:53:33;;;;;;;64.03;2.97;;;14.10;86.80;;;;;;5537485;25;20002;-80
2024/04/18 10:55:59;;;;;;;5.05;1.45;;;14.10;86.60;;;;;;5542966;25;20008;-77
2024/04/18 10:58:26;;;;;;;6.53;1.55;;;14.20;86.60;;;;;;5538514;25;20000;-76
2024/04/18 11:00:59;;;;;;;3.90;1.55;;;14.20;87.00;;;;;;5520679;25;20016;-77
2024/04/18 11:03:29;;;;;;;67.43;4.40;;;14.20;86.50;;;;;;5529321;25;20001;-77
2024/04/18 11:06:01;;;;;;;2.45;1.30;;;14.20;86.80;;;;;;5549472;25;20016;-77
2024/04/18 11:08:30;;;;;;;10.68;1.92;;;14.30;86.50;;;;;;5544808;25;20013;-80
2024/04/18 11:10:56;;;;;;;11.55;1.83;;;14.30;87.10;;;;;;5533386;25;20016;-77
2024/04/18 11:13:22;;;;;;;12.35;1.35;;;14.20;87.50;;;;;;5532896;25;20005;-77
2024/04/18 11:15:47;;;;;;;5.25;1.35;;;14.30;87.40;;;;;;5527197;25;20011;-77
2024/04/18 11:18:14;;;;;;;7.28;1.55;;;14.30;87.20;;;;;;5531614;25;20001;-77
2024/04/18 11:20:41;;;;;;;65.15;3.47;;;14.30;87.80;;;;;;5515515;25;19997;-77
2024/04/18 11:23:08;;;;;;;155.38;10.68;;;14.30;87.20;;;;;;5519049;25;20001;-78
2024/04/18 11:25:33;;;;;;;4.68;1.10;;;14.30;87.60;;;;;;5541216;25;20009;-78
2024/04/18 11:28:08;;;;;;;169.85;10.02;;;14.30;86.70;;;;;;5522080;25;20009;-78
2024/04/18 11:30:40;;;;;;;190.88;5.10;;;14.30;86.40;;;;;;5522458;25;20024;-78
2024/04/18 11:33:08;;;;;;;4.38;1.15;;;14.30;86.60;;;;;;5521338;25;20467;-78
2024/04/18 11:35:34;;;;;;;105.05;21.83;;;14.40;87.40;;;;;;5518898;25;19997;-78
2024/04/18 11:38:08;;;;;;;3.78;1.20;;;14.40;87.60;;;;;;5523135;25;19998;-78
2024/04/18 11:40:34;;;;;;;107.53;4.00;;;14.30;87.00;;;;;;5538373;25;20451;-78
2024/04/18 11:43:00;;;;;;;62.53;2.92;;;14.40;87.30;;;;;;5529713;25;20024;-78
2024/04/18 11:45:26;;;;;;;174.73;4.50;;;14.40;87.30;;;;;;5521354;25;20011;-78
2024/04/18 11:47:56;;;;;;;62.42;2.47;;;14.50;88.00;;;;;;5547304;25;20013;-78
2024/04/18 11:50:22;;;;;;;5.88;1.23;;;14.50;87.70;;;;;;5539721;25;20015;-78
2024/04/18 11:52:48;;;;;;;107.70;12.57;;;14.50;87.00;;;;;;5543679;25;20445;-78
2024/04/18 11:55:26;;;;;;;7.75;1.52;;;14.60;87.60;;;;;;5522046;25;19997;-79
2024/04/18 11:57:52;;;;;;;6.57;1.90;;;14.60;87.10;;;;;;5528578;25;20003;-78
2024/04/18 12:00:34;;;;;;;66.18;2.97;;;14.70;86.30;;;;;;5553445;25;20009;-78
2024/04/18 12:03:05;;;;;;;54.28;2.30;;;14.70;87.40;;;;;;5541655;25;20038;-78
2024/04/18 12:05:31;;;;;;;64.53;3.10;;;14.70;87.00;;;;;;5546820;25;19997;-78
2024/04/18 12:07:57;;;;;;;97.60;3.38;;;14.70;86.80;;;;;;5530058;25;20001;-78
2024/04/18 12:10:29;;;;;;;11.32;1.17;;;14.70;87.00;;;;;;5528206;25;19997;-79
2024/04/18 12:13:03;;;;;;;62.63;2.72;;;14.80;85.80;;;;;;5545239;25;20455;-78
2024/04/18 12:15:33;;;;;;;4.93;1.20;;;14.80;87.10;;;;;;5533900;25;19994;-78
2024/04/18 12:17:59;;;;;;;11.90;1.60;;;14.80;85.80;;;;;;5558548;25;20087;-78
2024/04/18 12:20:26;;;;;;;5.78;1.77;;;14.80;85.00;;;;;;5533937;25;20563;-78
2024/04/18 12:22:51;;;;;;;7.68;1.67;;;14.80;86.90;;;;;;5554294;25;19996;-79
2024/04/18 12:25:17;;;;;;;68.10;4.97;;;14.80;87.20;;;;;;5548843;25;20073;-78
2024/04/18 12:27:43;;;;;;;6.03;1.38;;;14.90;87.20;;;;;;5521280;25;20504;-78
2024/04/18 12:30:28;;;;;;;2.97;1.48;;;14.90;86.90;;;;;;5525151;25;20070;-78
2024/04/18 12:33:12;;;;;;;132.00;4.57;;;15.00;87.40;;;;;;5540586;25;20070;-79
2024/04/18 12:35:38;;;;;;;9.50;1.45;;;15.00;87.00;;;;;;5535256;25;20404;-79
2024/04/18 12:38:04;;;;;;;294.88;11.43;;;15.00;87.20;;;;;;5564772;25;19997;-78
2024/04/18 12:40:29;;;;;;;65.53;3.40;;;15.00;86.70;;;;;;5521668;25;20015;-79
2024/04/18 12:43:11;;;;;;;5.40;1.30;;;15.10;86.40;;;;;;5540641;25;19997;-78
2024/04/18 12:45:57;;;;;;;590.42;13.45;;;15.10;85.70;;;;;;5551730;25;19997;-79
2024/04/18 12:48:42;;;;;;;8.27;1.58;;;15.10;86.60;;;;;;5538242;25;20072;-78
2024/04/18 12:51:07;;;;;;;8.55;1.55;;;15.00;85.50;;;;;;5555223;25;21375;-78
2024/04/18 12:53:42;;;;;;;6.93;1.23;;;15.10;85.00;;;;;;5537805;25;20001;-78
2024/04/18 12:56:07;;;;;;;5.55;1.10;;;15.10;86.70;;;;;;5548814;25;20064;-78
2024/04/18 12:58:33;;;;;;;154.90;5.68;;;15.10;87.80;;;;;;5539543;25;19997;-79
2024/04/18 13:01:07;;;;;;;141.73;8.52;;;15.20;87.00;;;;;;5520294;25;20012;-78